createdAt,value
2023-05-01T00:04:00.810Z,90.97
2023-05-01T00:09:03.055Z,90.43
2023-05-01T00:14:04.725Z,89.37
2023-05-01T00:19:06.437Z,93.17
2023-05-01T00:24:08.141Z,94.38
2023-05-01T00:29:09.927Z,93.43
2023-05-01T00:34:11.985Z,93.04
2023-05-01T00:39:13.554Z,94.09
2023-05-01T00:44:15.553Z,91.68
2023-05-01T00:49:18.149Z,92.98
2023-05-01T00:54:21.049Z,94.31
2023-05-01T00:59:22.845Z,95.96
2023-05-01T01:04:24.755Z,94.06
2023-05-01T01:09:48.527Z,92.82
2023-05-01T01:15:15.837Z,93.92
2023-05-01T01:20:36.352Z,96.85
2023-05-01T01:26:02.815Z,94.74
2023-05-01T01:31:07.257Z,94.57
2023-05-01T01:36:33.396Z,96.90
2023-05-01T01:41:37.216Z,96.44
2023-05-01T01:46:42.692Z,96.73
2023-05-01T01:51:46.694Z,95.61
2023-05-01T01:56:49.606Z,98.75
2023-05-01T02:01:53.669Z,99.06
2023-05-01T02:06:59.912Z,94.63
2023-05-01T02:12:05.488Z,97.59
2023-05-01T02:17:09.409Z,98.69
2023-05-01T02:22:12.205Z,99.25
2023-05-01T02:27:20.338Z,97.30
2023-05-01T02:32:24.010Z,96.47
2023-05-01T02:37:28.082Z,99.60
2023-05-01T02:42:30.139Z,97.53
2023-05-01T02:47:35.659Z,98.03
2023-05-01T02:52:38.053Z,98.23
2023-05-01T02:57:59.806Z,100.00
2023-05-01T03:03:01.540Z,98.53
2023-05-01T03:08:04.192Z,97.95
2023-05-01T03:13:05.821Z,99.90
2023-05-01T03:18:07.898Z,99.10
2023-05-01T03:23:09.998Z,99.47
2023-05-01T03:28:11.650Z,99.70
2023-05-01T03:33:13.740Z,100.00
2023-05-01T03:38:15.922Z,100.00
2023-05-01T03:43:44.503Z,100.00
2023-05-01T03:49:04.903Z,99.70
2023-05-01T03:54:10.596Z,100.00
2023-05-01T03:59:29.618Z,99.54
2023-05-01T04:04:31.564Z,100.00
2023-05-01T04:09:33.783Z,100.00
2023-05-01T04:14:35.712Z,100.00
2023-05-01T04:19:37.912Z,100.00
2023-05-01T04:24:39.600Z,100.00
2023-05-01T04:29:41.866Z,100.00
2023-05-01T04:34:46.988Z,100.00
2023-05-01T04:39:48.856Z,99.00
2023-05-01T04:44:52.363Z,97.08
2023-05-01T04:49:55.692Z,91.41
2023-05-01T04:54:58.010Z,92.53
2023-05-01T05:00:03.529Z,92.43
2023-05-01T05:05:08.230Z,91.72
2023-05-01T05:10:10.287Z,90.43
2023-05-01T05:15:13.205Z,84.51
2023-05-01T05:20:15.767Z,85.62
2023-05-01T05:25:17.719Z,85.50
2023-05-01T05:30:19.563Z,75.05
2023-05-01T05:35:22.214Z,73.17
2023-05-01T05:40:23.999Z,72.59
2023-05-01T05:45:34.411Z,72.11
2023-05-01T05:50:36.836Z,72.58
2023-05-01T05:55:40.462Z,69.91
2023-05-01T06:00:43.039Z,69.55
2023-05-01T06:05:45.431Z,66.57
2023-05-01T06:10:47.717Z,63.95
2023-05-01T06:15:50.051Z,60.10
2023-05-01T06:20:52.528Z,61.58
2023-05-01T06:25:54.666Z,61.95
2023-05-01T06:30:56.410Z,61.37
2023-05-01T06:36:00.704Z,58.84
2023-05-01T06:41:02.440Z,60.20
2023-05-01T06:46:05.187Z,60.44
2023-05-01T06:51:06.853Z,56.78
2023-05-01T06:56:09.007Z,55.91
2023-05-01T07:01:11.088Z,54.84
2023-05-01T07:06:12.793Z,53.67
2023-05-01T07:11:14.527Z,52.47
2023-05-01T07:16:16.211Z,51.00
2023-05-01T07:21:17.994Z,51.70
2023-05-01T07:26:19.858Z,55.19
2023-05-01T07:31:22.596Z,49.93
2023-05-01T07:36:24.399Z,47.89
2023-05-01T07:41:26.685Z,50.56
2023-05-01T07:46:28.486Z,49.04
2023-05-01T07:51:30.862Z,48.84
2023-05-01T07:56:32.653Z,47.48
2023-05-01T08:01:34.923Z,47.07
2023-05-01T08:06:36.636Z,44.45
2023-05-01T08:11:38.309Z,44.84
2023-05-01T08:16:40.028Z,42.81
2023-05-01T08:21:41.734Z,41.25
2023-05-01T08:26:43.727Z,40.97
2023-05-01T08:31:45.613Z,41.81
2023-05-01T08:36:47.360Z,39.67
2023-05-01T08:41:50.002Z,38.06
2023-05-01T08:47:12.808Z,38.69
2023-05-01T08:52:15.471Z,38.70
2023-05-01T08:57:17.350Z,39.78
2023-05-01T09:02:21.738Z,39.06
2023-05-01T09:07:23.814Z,40.38
2023-05-01T09:12:26.904Z,37.87
2023-05-01T09:17:31.721Z,37.81
2023-05-01T09:22:34.760Z,37.84
2023-05-01T09:27:38.037Z,39.11
2023-05-01T09:32:41.465Z,36.47
2023-05-01T09:37:49.930Z,37.48
2023-05-01T09:42:53.228Z,36.21
2023-05-01T09:48:10.915Z,37.59
2023-05-01T09:53:13.720Z,37.75
2023-05-01T09:58:27.628Z,37.24
2023-05-01T10:03:36.948Z,36.27
2023-05-01T10:08:47.484Z,35.93
2023-05-01T10:14:09.684Z,35.10
2023-05-01T10:19:13.268Z,34.83
2023-05-01T10:24:17.220Z,36.51
2023-05-01T10:29:23.334Z,36.39
2023-05-01T10:34:28.411Z,34.00
2023-05-01T10:39:34.822Z,34.73
2023-05-01T10:44:37.379Z,34.94
2023-05-01T10:50:09.289Z,35.57
2023-05-01T10:55:36.442Z,33.48
2023-05-01T11:00:38.234Z,39.48
2023-05-01T11:06:05.023Z,34.89
2023-05-01T11:11:26.983Z,36.86
2023-05-01T11:16:38.520Z,35.86
2023-05-01T11:21:41.932Z,33.50
2023-05-01T11:26:44.523Z,34.58
2023-05-01T11:31:48.584Z,34.75
2023-05-01T11:36:51.870Z,34.00
2023-05-01T11:42:09.604Z,33.83
2023-05-01T11:47:11.605Z,34.42
2023-05-01T11:52:13.265Z,31.94
2023-05-01T11:57:14.988Z,34.08
2023-05-01T12:02:20.582Z,32.11
2023-05-01T12:07:23.644Z,34.35
2023-05-01T12:12:25.403Z,34.57
2023-05-01T12:17:28.383Z,34.36
2023-05-01T12:22:30.382Z,33.78
2023-05-01T12:27:32.952Z,33.32
2023-05-01T12:32:34.794Z,32.95
2023-05-01T12:37:36.969Z,30.66
2023-05-01T12:42:38.779Z,31.14
2023-05-01T12:47:40.573Z,30.98
2023-05-01T12:52:42.678Z,31.70
2023-05-01T12:57:54.578Z,32.33
2023-05-01T13:03:04.202Z,32.57
2023-05-01T13:08:06.134Z,31.16
2023-05-01T13:13:07.853Z,32.08
2023-05-01T13:18:09.640Z,33.43
2023-05-01T13:23:13.064Z,31.05
2023-05-01T13:28:19.206Z,29.97
2023-05-01T13:33:20.727Z,30.01
2023-05-01T13:38:24.623Z,30.06
2023-05-01T13:43:26.260Z,30.53
2023-05-01T13:48:27.909Z,30.76
2023-05-01T13:53:30.512Z,31.10
2023-05-01T13:58:33.745Z,30.99
2023-05-01T14:03:40.821Z,30.63
2023-05-01T14:08:43.320Z,31.00
2023-05-01T14:13:46.963Z,29.88
2023-05-01T14:18:48.766Z,30.42
2023-05-01T14:23:53.130Z,30.74
2023-05-01T14:28:55.565Z,30.41
2023-05-01T14:34:06.286Z,31.06
2023-05-01T14:39:08.495Z,30.72
2023-05-01T14:44:17.896Z,31.64
2023-05-01T14:49:21.699Z,32.99
2023-05-01T14:54:23.357Z,34.49
2023-05-01T14:59:25.003Z,34.62
2023-05-01T15:04:26.710Z,35.23
2023-05-01T15:09:28.325Z,34.48
2023-05-01T15:14:29.954Z,35.24
2023-05-01T15:19:32.533Z,35.04
2023-05-01T15:24:34.195Z,35.59
2023-05-01T15:29:35.893Z,35.73
2023-05-01T15:34:37.974Z,35.73
2023-05-01T15:39:40.359Z,36.61
2023-05-01T15:44:42.163Z,35.37
2023-05-01T15:49:43.842Z,35.74
2023-05-01T15:54:48.563Z,35.98
2023-05-01T15:59:53.913Z,36.81
2023-05-01T16:04:55.615Z,36.54
2023-05-01T16:09:58.204Z,36.35
2023-05-01T16:15:04.546Z,37.29
2023-05-01T16:20:10.964Z,36.76
2023-05-01T16:25:12.821Z,38.10
2023-05-01T16:30:14.807Z,37.51
2023-05-01T16:35:18.344Z,38.12
2023-05-01T16:40:21.577Z,37.87
2023-05-01T16:45:23.301Z,39.11
2023-05-01T16:50:25.051Z,38.93
2023-05-01T16:55:26.810Z,40.40
2023-05-01T17:00:29.387Z,38.97
2023-05-01T17:05:31.010Z,39.77
2023-05-01T17:10:32.648Z,40.59
2023-05-01T17:15:34.285Z,40.69
2023-05-01T17:20:36.233Z,41.19
2023-05-01T17:25:37.926Z,41.63
2023-05-01T17:30:39.587Z,41.82
2023-05-01T17:35:41.417Z,41.98
2023-05-01T17:40:43.241Z,42.30
2023-05-01T17:45:45.514Z,42.88
2023-05-01T17:50:47.401Z,43.20
2023-05-01T17:55:49.098Z,44.06
2023-05-01T18:00:51.058Z,44.70
2023-05-01T18:05:52.744Z,44.95
2023-05-01T18:10:54.351Z,45.59
2023-05-01T18:15:56.412Z,45.64
2023-05-01T18:20:58.345Z,46.79
2023-05-01T18:26:00.076Z,47.45
2023-05-01T18:31:01.918Z,47.03
2023-05-01T18:36:04.460Z,48.07
2023-05-01T18:41:06.207Z,47.75
2023-05-01T18:46:07.823Z,48.22
2023-05-01T18:51:09.743Z,48.55
2023-05-01T18:56:11.407Z,48.04
2023-05-01T19:01:13.071Z,49.19
2023-05-01T19:06:14.730Z,50.38
2023-05-01T19:11:16.533Z,50.89
2023-05-01T19:16:18.193Z,50.72
2023-05-01T19:21:20.128Z,50.02
2023-05-01T19:26:23.195Z,50.85
2023-05-01T19:31:25.309Z,50.31
2023-05-01T19:36:27.020Z,50.75
2023-05-01T19:41:28.846Z,51.78
2023-05-01T19:46:30.653Z,53.52
2023-05-01T19:51:32.713Z,53.67
2023-05-01T19:56:34.622Z,54.54
2023-05-01T20:01:36.879Z,55.54
2023-05-01T20:06:38.629Z,56.92
2023-05-01T20:11:40.286Z,57.71
2023-05-01T20:16:41.921Z,57.26
2023-05-01T20:21:43.720Z,59.02
2023-05-01T20:26:45.334Z,58.84
2023-05-01T20:31:48.646Z,58.83
2023-05-01T20:36:50.396Z,59.36
2023-05-01T20:41:52.021Z,63.99
2023-05-01T20:46:53.899Z,66.02
2023-05-01T20:51:56.817Z,66.62
2023-05-01T20:56:58.684Z,69.20
2023-05-01T21:02:04.517Z,69.28
2023-05-01T21:07:06.133Z,71.32
2023-05-01T21:12:07.731Z,73.55
2023-05-01T21:17:09.637Z,73.96
2023-05-01T21:22:20.877Z,73.48
2023-05-01T21:27:24.225Z,72.45
2023-05-01T21:32:34.652Z,71.16
2023-05-01T21:37:37.296Z,70.87
2023-05-01T21:42:40.001Z,71.12
2023-05-01T21:47:44.421Z,69.07
2023-05-01T21:52:48.007Z,70.73
2023-05-01T21:57:50.261Z,70.88
2023-05-01T22:02:52.097Z,71.24
2023-05-01T22:07:54.231Z,72.30
2023-05-01T22:12:55.981Z,74.39
2023-05-01T22:17:57.652Z,75.51
2023-05-01T22:22:59.247Z,75.42
2023-05-01T22:28:04.187Z,76.06
2023-05-01T22:33:05.893Z,76.06
2023-05-01T22:38:08.258Z,75.22
2023-05-01T22:43:10.408Z,75.35
2023-05-01T22:48:12.421Z,74.42
2023-05-01T22:53:14.206Z,73.69
2023-05-01T22:58:15.831Z,73.30
2023-05-01T23:03:17.542Z,73.55
2023-05-01T23:08:19.226Z,73.07
2023-05-01T23:13:23.533Z,73.38
2023-05-01T23:18:31.647Z,73.97
2023-05-01T23:23:35.247Z,74.41
2023-05-01T23:28:44.096Z,74.24
2023-05-01T23:33:45.741Z,75.08
2023-05-01T23:38:47.747Z,75.34
2023-05-01T23:43:49.390Z,75.19
2023-05-01T23:48:51.122Z,74.28
2023-05-01T23:53:52.679Z,74.67
2023-05-01T23:58:54.393Z,75.92
